Hovedside
METAR-TAF:

METAR-TAF

Lufthavner :

Léon M'ba internasjonale lufthavn

Libreville, Gabon

breddegrad: 00-27N, lengdegrad: 009-25E, høyde over havet: 12 m

Gjeldene værobservasjon

Denne rapporten ble laget for 48 minutter siden, klokken 22:00 UTC
Vind 7 kt fra Sørvest
Temperatur 26°C
Luftfuktighet 84%
Trykk 1012 hPa
Sikt 10 km eller mer
Spredte skyer i en høyde av 1200 ft

METAR: FOOL 252200Z 23007KT 9999 SCT012 26/23 Q1012 NOSIG

Tid: 23:48 (22:48 UTC)

Varsel

Denne rapporten ble laget for 5 timer og 48 minutter siden, klokken 17:00 UTC
Varsel gyldig fra 25. klokken 18 UTC til 26. klokken 24 UTC
Vind 8 kt fra Vest-sørvest
Sikt 10 km eller mer
Spredte skyer i en høyde av 1200 ft
Brutte skyer i en høyde av 2600 ft

TAF: FOOL 251700Z 2518/2624 24008KT 9999 SCT012 BKN026

Værobservasjoner og værvarsel for over 4000 flyplasser (METAR- og TAF-rapporter).

Tilgjengelige stasjoner er representert av de røde og gule prikkene på kartet.

Hold musepekeren over prikken for å se navnet på stasjonen.

Klikk så for å se værobservasjoner og -varsler.

For å forandre kartet kan du klikke på den grønne knappen med svart kryss for å zoome inn, på den grønne knappen med strek for å zoome ut, eller på de grønne pilene for å se tilstøtende kart.


METAR-TAF: